Time;durP1;ratioP1;P1;durP2;ratioP2;P2;SDS_P1;SDS_P2;PMS_P1;PMS_P2;Temp;Humidity;BMP_temperature;BMP_pressure;BME280_temperature;BME280_humidity;BME280_pressure;Samples;Min_cycle;Max_cycle;Signal;HPM_P1;HPM_P2
2022/12/10 00:01:21;;;;;;;;;65.00;53.25;;;;;3.54;70.11;100328.56;5019414;28;45286;-70
2022/12/10 00:03:47;;;;;;;;;66.25;50.25;;;;;3.85;70.44;100385.88;5018122;28;45550;-70
2022/12/10 00:06:15;;;;;;;;;67.25;52.50;;;;;3.75;70.51;100363.81;5020262;28;46176;-69
2022/12/10 00:08:41;;;;;;;;;67.25;51.00;;;;;3.89;70.74;100391.75;5020696;28;45473;-69
2022/12/10 00:11:09;;;;;;;;;70.00;53.25;;;;;3.90;70.68;100380.28;5019674;28;45611;-69
2022/12/10 00:13:37;;;;;;;;;67.25;52.00;;;;;3.81;70.63;100373.91;5019878;28;45197;-69
2022/12/10 00:16:07;;;;;;;;;68.75;51.25;;;;;3.99;69.97;100382.25;5017754;28;48221;-69
2022/12/10 00:18:34;;;;;;;;;65.00;50.25;;;;;3.85;70.52;100367.47;5001127;28;45491;-70
2022/12/10 00:21:06;;;;;;;;;63.25;51.00;;;;;4.06;69.93;100393.19;5000950;28;45413;-71
2022/12/10 00:23:32;;;;;;;;;67.75;50.25;;;;;3.30;69.79;100257.56;5020703;28;45302;-70
2022/12/10 00:26:19;;;;;;;;;59.00;47.00;;;;;3.66;70.03;100322.44;5020562;28;46812;-69
2022/12/10 00:28:45;;;;;;;;;61.50;48.25;;;;;3.80;69.94;100337.19;5019397;28;45538;-70
2022/12/10 00:31:18;;;;;;;;;62.50;47.75;;;;;4.09;69.72;100398.22;5019054;28;45327;-69
2022/12/10 00:33:44;;;;;;;;;65.50;50.50;;;;;4.12;70.37;100406.72;5018891;28;45218;-69
2022/12/10 00:36:19;;;;;;;;;56.00;45.50;;;;;3.41;69.54;100272.59;5017406;28;47823;-68
2022/12/10 00:38:45;;;;;;;;;58.50;45.75;;;;;4.12;70.01;100387.47;5018600;28;45277;-69
2022/12/10 00:41:12;;;;;;;;;64.00;49.50;;;;;4.22;69.49;100393.75;5018725;28;45492;-68
2022/12/10 00:43:37;;;;;;;;;57.25;46.25;;;;;4.16;68.98;100395.03;5018939;28;45429;-70
2022/12/10 00:46:03;;;;;;;;;57.50;46.50;;;;;4.08;69.38;100396.53;5000593;28;47520;-68
2022/12/10 00:48:30;;;;;;;;;58.00;45.00;;;;;3.95;69.14;100383.41;5018554;28;45495;-71
2022/12/10 00:50:59;;;;;;;;;55.25;44.75;;;;;4.18;69.35;100402.81;5018532;28;45519;-69
2022/12/10 00:53:26;;;;;;;;;57.25;44.25;;;;;4.24;68.91;100405.84;5018711;28;45182;-68
2022/12/10 00:55:52;;;;;;;;;58.75;47.75;;;;;4.27;69.20;100431.09;5016762;28;47851;-70
2022/12/10 00:58:18;;;;;;;;;67.50;49.75;;;;;4.31;69.79;100410.66;5018143;28;45689;-71
2022/12/10 01:00:43;;;;;;;;;62.75;49.50;;;;;4.05;69.13;100370.47;5018438;28;45313;-69
2022/12/10 01:03:09;;;;;;;;;66.75;51.00;;;;;4.27;69.85;100410.03;5018601;28;45555;-69
2022/12/10 01:05:34;;;;;;;;;62.50;49.00;;;;;2.95;69.66;100190.00;5018071;28;45634;-69
2022/12/10 01:07:59;;;;;;;;;62.25;47.50;;;;;3.72;69.86;100319.34;5017364;28;62868;-70
2022/12/10 01:10:24;;;;;;;;;56.50;47.00;;;;;4.32;70.28;100401.81;5018028;28;45340;-70
2022/12/10 01:12:50;;;;;;;;;61.25;45.75;;;;;4.36;69.58;100408.50;5018150;28;45566;-68
2022/12/10 01:15:15;;;;;;;;;60.50;47.50;;;;;3.28;69.42;100239.28;5017883;28;45854;-68
2022/12/10 01:17:41;;;;;;;;;59.50;45.50;;;;;4.08;69.46;100381.59;5017878;28;45314;-69
2022/12/10 01:20:06;;;;;;;;;56.00;45.25;;;;;4.09;69.23;100416.63;5000343;28;45717;-69
2022/12/10 01:22:32;;;;;;;;;63.50;47.00;;;;;4.29;69.42;100421.28;5018183;28;45465;-69
2022/12/10 01:24:57;;;;;;;;;61.00;48.00;;;;;4.22;69.13;100399.84;5017656;28;45619;-67
2022/12/10 01:27:22;;;;;;;;;55.50;46.00;;;;;3.90;69.19;100372.41;5017594;28;53176;-68
2022/12/10 01:29:48;;;;;;;;;60.50;49.25;;;;;4.00;69.71;100372.56;5018122;28;45569;-68
2022/12/10 01:32:13;;;;;;;;;60.25;49.50;;;;;3.91;69.48;100347.78;5018362;28;45421;-69
2022/12/10 01:34:38;;;;;;;;;66.75;54.00;;;;;4.41;69.00;100428.31;5017717;28;46595;-70
2022/12/10 01:37:04;;;;;;;;;64.50;50.75;;;;;3.81;69.17;100347.63;5017714;28;45267;-69
2022/12/10 01:39:29;;;;;;;;;62.25;49.75;;;;;2.97;70.22;100237.16;5017388;28;45420;-70
2022/12/10 01:41:58;;;;;;;;;68.25;51.25;;;;;3.93;70.21;100394.06;5017914;28;45418;-70
2022/12/10 01:44:23;;;;;;;;;63.25;47.75;;;;;4.30;69.53;100438.75;5017530;28;45925;-69
2022/12/10 01:46:54;;;;;;;;;65.00;50.00;;;;;4.09;68.98;100403.47;5017614;28;45305;-67
2022/12/10 01:49:33;;;;;;;;;63.25;51.25;;;;;4.29;69.75;100444.97;5016782;28;45535;-69
2022/12/10 01:51:59;;;;;;;;;59.75;47.75;;;;;4.37;69.36;100452.31;5017722;28;45456;-68
2022/12/10 01:54:30;;;;;;;;;59.00;46.25;;;;;4.16;69.01;100399.44;5015881;28;46397;-69
2022/12/10 01:57:23;;;;;;;;;60.25;49.00;;;;;4.47;69.67;100463.84;4999739;28;46697;-69
2022/12/10 01:59:53;;;;;;;;;58.25;49.00;;;;;3.36;69.17;100286.84;5008734;28;45220;-68
2022/12/10 02:02:42;;;;;;;;;59.75;48.25;;;;;3.80;69.35;100343.28;5017603;28;45313;-69
2022/12/10 02:05:40;;;;;;;;;69.50;55.00;;;;;4.54;69.08;100468.56;5017753;28;46418;-68
2022/12/10 02:08:19;;;;;;;;;61.25;49.75;;;;;4.46;68.95;100447.22;5016788;28;45475;-68
2022/12/10 02:11:07;;;;;;;;;64.50;52.00;;;;;4.61;69.12;100468.97;5017099;28;45320;-70
2022/12/10 02:13:40;;;;;;;;;60.75;50.00;;;;;4.61;69.22;100468.13;5017396;28;45403;-69
2022/12/10 02:16:21;;;;;;;;;66.50;49.00;;;;;4.63;68.63;100474.13;5017039;28;46805;-70
2022/12/10 02:19:30;;;;;;;;;67.00;49.25;;;;;4.64;69.06;100458.19;5016803;28;45294;-69
2022/12/10 02:21:57;;;;;;;;;68.50;52.25;;;;;4.69;68.99;100477.13;5017080;28;45437;-68
2022/12/10 02:24:31;;;;;;;;;64.00;48.75;;;;;4.29;68.23;100421.28;5017082;28;45610;-69
2022/12/10 02:27:05;;;;;;;;;66.00;52.25;;;;;4.72;69.17;100476.06;5016877;28;46726;-68
2022/12/10 02:29:32;;;;;;;;;65.75;51.25;;;;;3.42;67.92;100272.47;5016856;28;45369;-70
2022/12/10 02:32:08;;;;;;;;;61.75;48.75;;;;;4.29;68.71;100434.44;5015469;28;45240;-69
2022/12/10 02:34:40;;;;;;;;;63.75;49.75;;;;;4.03;68.71;100404.78;5017385;28;45342;-69
2022/12/10 02:37:23;;;;;;;;;62.00;49.25;;;;;4.23;69.25;100442.81;5015615;28;47662;-70
2022/12/10 02:39:54;;;;;;;;;59.75;47.25;;;;;4.50;68.91;100482.06;5016561;28;45438;-68
2022/12/10 02:42:25;;;;;;;;;59.25;47.00;;;;;4.39;69.44;100490.72;5016942;28;45250;-68
2022/12/10 02:44:53;;;;;;;;;54.00;43.00;;;;;4.39;69.43;100501.25;5016998;28;45416;-67
2022/12/10 02:47:20;;;;;;;;;55.25;44.25;;;;;4.34;70.14;100486.75;5016581;28;45962;-69
2022/12/10 02:49:52;;;;;;;;;50.75;40.00;;;;;3.39;70.01;100340.97;5016746;28;45424;-68
2022/12/10 02:52:20;;;;;;;;;60.25;44.25;;;;;4.28;69.94;100488.88;5016967;28;45269;-69
2022/12/10 02:54:48;;;;;;;;;56.25;44.50;;;;;4.27;69.78;100500.34;5016534;28;45409;-67
2022/12/10 02:57:27;;;;;;;;;41.25;38.50;;;;;4.27;69.69;100489.81;5016529;28;45646;-69
2022/12/10 03:00:16;;;;;;;;;53.25;42.50;;;;;4.22;70.10;100514.78;5017390;28;45297;-68
2022/12/10 03:03:10;;;;;;;;;54.75;45.25;;;;;3.95;69.75;100462.31;5020641;28;45436;-69
2022/12/10 03:05:54;;;;;;;;;56.25;43.00;;;;;4.01;70.93;100490.00;5020526;28;45574;-68
2022/12/10 03:08:38;;;;;;;;;45.75;38.25;;;;;4.02;70.37;100471.47;5020091;28;45661;-68
2022/12/10 03:11:13;;;;;;;;;56.50;44.75;;;;;4.17;70.67;100485.31;5019956;28;45528;-69
2022/12/10 03:14:02;;;;;;;;;57.75;46.75;;;;;4.00;70.47;100472.50;5019909;28;45477;-69
2022/12/10 03:16:34;;;;;;;;;54.67;43.00;;;;;2.95;70.28;100302.06;5002194;28;45519;-70
2022/12/10 03:19:04;;;;;;;;;52.50;37.75;;;;;4.12;69.86;100485.66;5001415;28;46744;-69
2022/12/10 03:21:32;;;;;;;;;55.75;45.00;;;;;3.97;69.94;100442.84;5018385;28;45291;-68
2022/12/10 03:23:59;;;;;;;;;57.50;44.00;;;;;3.86;69.58;100434.91;5019683;28;45290;-69
2022/12/10 03:26:26;;;;;;;;;60.00;46.00;;;;;4.10;69.62;100447.25;5019900;28;45510;-68
2022/12/10 03:28:58;;;;;;;;;46.25;37.75;;;;;3.98;69.25;100439.28;5019666;28;45811;-68
2022/12/10 03:31:24;;;;;;;;;40.75;33.25;;;;;4.13;69.67;100518.06;5020038;28;45235;-68
2022/12/10 03:33:49;;;;;;;;;53.50;41.50;;;;;3.97;69.59;100498.09;5019999;28;45234;-67
2022/12/10 03:36:18;;;;;;;;;47.50;39.00;;;;;3.00;70.22;100328.84;5018568;28;45660;-70
2022/12/10 03:38:43;;;;;;;;;52.25;41.50;;;;;3.58;70.24;100433.34;5019539;28;45337;-68
2022/12/10 03:41:09;;;;;;;;;43.50;39.75;;;;;3.51;70.70;100439.16;5019256;28;45668;-68
2022/12/10 03:43:35;;;;;;;;;44.25;37.50;;;;;3.58;70.84;100458.81;5001890;28;45231;-69
2022/12/10 03:46:00;;;;;;;;;56.25;42.00;;;;;3.24;70.68;100384.94;5019853;28;45249;-68
2022/12/10 03:48:26;;;;;;;;;41.50;37.75;;;;;3.60;70.48;100451.66;5019294;28;46076;-68
2022/12/10 03:50:51;;;;;;;;;56.00;42.75;;;;;3.98;70.30;100504.19;5019375;28;45382;-69
2022/12/10 03:53:16;;;;;;;;;49.50;39.50;;;;;3.86;70.55;100502.44;5001713;28;45464;-69
2022/12/10 03:55:42;;;;;;;;;49.75;39.00;;;;;3.91;70.84;100509.03;5019476;28;45403;-68
2022/12/10 03:58:07;;;;;;;;;48.33;39.00;;;;;3.97;69.91;100505.97;5017852;28;48822;-68
2022/12/10 04:00:32;;;;;;;;;56.00;41.50;;;;;3.73;70.39;100481.41;5018604;28;65306;-68
2022/12/10 04:02:58;;;;;;;;;44.67;39.00;;;;;3.90;70.53;100498.63;5019352;28;45251;-68
2022/12/10 04:05:23;;;;;;;;;48.33;37.67;;;;;3.66;69.65;100467.84;5019566;28;45547;-69
2022/12/10 04:07:48;;;;;;;;;41.00;38.33;;;;;3.84;69.28;100510.44;5018950;28;46233;-68
2022/12/10 04:10:14;;;;;;;;;48.25;39.50;;;;;3.70;70.44;100491.28;5017738;28;46057;-68
2022/12/10 04:12:39;;;;;;;;;46.33;37.33;;;;;3.69;71.14;100511.50;5000638;28;45420;-68
2022/12/10 04:17:49;;;;;;;;;51.00;40.00;;;;;3.53;71.36;100505.59;5019263;28;45863;-70
2022/12/10 04:28:26;;;;;;;;;46.67;39.33;;;;;3.61;71.44;100508.56;5018648;28;45388;-70
2022/12/10 04:30:52;;;;;;;;;53.67;39.67;;;;;3.67;71.51;100518.66;5018717;28;45375;-68
2022/12/10 04:33:17;;;;;;;;;37.67;32.33;;;;;3.72;70.83;100516.53;5018857;28;45251;-69
2022/12/10 04:35:42;;;;;;;;;45.00;36.33;;;;;3.77;70.30;100524.94;5001195;28;45504;-70
2022/12/10 04:38:08;;;;;;;;;39.67;33.67;;;;;3.81;70.20;100533.47;5018362;28;45865;-70
2022/12/10 04:40:33;;;;;;;;;40.00;29.67;;;;;3.02;69.65;100398.72;5017080;28;48346;-67
2022/12/10 04:42:58;;;;;;;;;38.33;33.33;;;;;3.72;69.41;100529.69;5018565;28;45191;-69
2022/12/10 04:45:24;;;;;;;;;30.67;24.67;;;;;2.93;69.40;100393.22;5018940;28;45378;-70
2022/12/10 04:47:49;;;;;;;;;34.33;30.00;;;;;3.74;68.73;100535.66;5018509;28;45436;-68
2022/12/10 04:50:14;;;;;;;;;39.00;27.33;;;;;3.72;68.52;100524.41;5018544;28;45353;-68
2022/12/10 04:52:40;;;;;;;;;35.33;33.67;;;;;2.00;69.00;100245.56;5018793;28;45465;-69
2022/12/10 04:55:05;;;;;;;;;44.33;36.00;;;;;3.80;69.24;100545.75;5018635;28;45440;-67
2022/12/10 04:57:31;;;;;;;;;43.67;33.33;;;;;2.78;68.75;100352.25;5018851;28;46145;-68
2022/12/10 04:59:56;;;;;;;;;37.33;35.33;;;;;3.51;69.02;100465.44;5018204;28;57514;-70
2022/12/10 05:02:21;;;;;;;;;36.00;30.33;;;;;3.78;68.65;100531.88;5018310;28;45231;-68
2022/12/10 05:04:48;;;;;;;;;39.00;35.33;;;;;2.66;67.88;100315.41;5016845;28;45472;-69
2022/12/10 05:07:14;;;;;;;;;29.00;28.00;;;;;3.50;68.05;100484.78;4999969;28;47708;-69
2022/12/10 05:09:39;;;;;;;;;35.67;30.00;;;;;3.90;67.75;100544.19;5018179;28;45464;-67
2022/12/10 05:12:04;;;;;;;;;36.00;29.00;;;;;3.44;68.19;100448.41;5017465;28;58129;-69
2022/12/10 05:14:33;;;;;;;;;40.00;32.67;;;;;3.66;68.03;100485.41;5018238;28;45507;-69
2022/12/10 05:16:58;;;;;;;;;42.67;34.00;;;;;3.96;67.15;100521.88;5017729;28;54476;-68
2022/12/10 05:19:25;;;;;;;;;33.00;31.67;;;;;4.12;66.97;100526.91;5018043;28;45464;-68
2022/12/10 05:24:36;;;;;;;;;36.67;31.33;;;;;4.22;68.22;100531.41;5018130;28;45307;-68
2022/12/10 05:27:01;;;;;;;;;32.33;30.67;;;;;3.90;66.96;100493.38;5017643;28;46694;-69
2022/12/10 05:29:27;;;;;;;;;39.67;32.33;;;;;4.22;66.61;100541.94;5017634;28;45234;-69
2022/12/10 05:31:52;;;;;;;;;37.00;30.67;;;;;3.74;66.75;100461.22;5000117;28;45324;-69
2022/12/10 05:34:18;;;;;;;;;27.67;22.00;;;;;4.21;67.15;100542.91;5018070;28;45571;-67
2022/12/10 05:36:43;;;;;;;;;39.33;32.00;;;;;3.98;66.15;100504.19;5017679;28;45965;-71
2022/12/10 05:39:10;;;;;;;;;29.00;28.00;;;;;4.18;66.11;100534.34;5017535;28;45734;-68
2022/12/10 05:41:38;;;;;;;;;34.33;30.00;;;;;4.02;66.79;100528.50;5017765;28;45389;-69
2022/12/10 05:44:04;;;;;;;;;27.33;19.67;;;;;3.90;67.19;100522.31;5017911;28;45575;-70
2022/12/10 05:46:32;;;;;;;;;25.00;23.33;;;;;4.04;67.10;100555.56;5017295;28;45775;-69
2022/12/10 05:48:58;;;;;;;;;30.00;22.33;;;;;4.03;66.59;100540.72;5017184;28;45301;-70
2022/12/10 05:51:26;;;;;;;;;22.67;18.67;;;;;4.02;66.16;100550.41;4999768;28;45426;-68
2022/12/10 05:53:53;;;;;;;;;24.67;24.67;;;;;3.98;66.82;100552.38;5018088;28;45439;-69
2022/12/10 05:56:21;;;;;;;;;30.67;26.67;;;;;4.10;67.07;100581.41;5016430;28;48180;-68
2022/12/10 05:58:49;;;;;;;;;32.33;26.00;;;;;3.98;66.72;100547.13;5017486;28;45183;-67
2022/12/10 06:01:20;;;;;;;;;35.00;31.00;;;;;3.91;66.93;100532.72;5017193;28;45395;-69
2022/12/10 06:03:46;;;;;;;;;40.67;35.00;;;;;3.66;67.17;100504.66;5016158;28;45538;-69
2022/12/10 06:06:12;;;;;;;;;33.00;26.67;;;;;4.03;66.92;100564.38;5017111;28;45887;-68
2022/12/10 06:08:38;;;;;;;;;23.00;20.00;;;;;4.02;67.43;100565.34;5017371;28;45481;-69
2022/12/10 06:11:09;;;;;;;;;35.67;31.00;;;;;3.57;67.44;100518.41;5017217;28;45333;-69
2022/12/10 06:13:35;;;;;;;;;30.00;23.67;;;;;3.82;67.88;100564.94;5017507;28;45347;-68
2022/12/10 06:16:05;;;;;;;;;35.67;33.00;;;;;3.72;67.66;100563.84;5017043;28;46432;-70
2022/12/10 06:18:30;;;;;;;;;35.33;26.67;;;;;3.78;68.84;100573.94;5016928;28;45478;-68
2022/12/10 06:20:55;;;;;;;;;34.33;30.33;;;;;3.67;69.17;100579.94;5017001;28;45424;-69
2022/12/10 06:23:21;;;;;;;;;40.33;32.33;;;;;3.53;69.14;100552.91;5016741;28;52151;-68
2022/12/10 06:25:46;;;;;;;;;30.00;27.33;;;;;3.48;68.78;100519.06;5015940;28;49001;-67
2022/12/10 06:28:11;;;;;;;;;40.00;31.33;;;;;3.57;68.43;100509.69;5017046;28;47185;-68
2022/12/10 06:30:37;;;;;;;;;44.00;35.33;;;;;3.80;68.18;100556.28;4999029;28;45322;-70
2022/12/10 06:33:02;;;;;;;;;42.67;37.67;;;;;4.07;67.97;100589.53;5017301;28;45467;-68
2022/12/10 06:35:27;;;;;;;;;35.00;30.33;;;;;4.05;68.45;100609.84;5018585;28;45595;-69
2022/12/10 06:37:53;;;;;;;;;40.33;31.67;;;;;3.71;67.60;100533.25;5023276;28;45752;-70
2022/12/10 06:40:18;;;;;;;;;39.00;31.67;;;;;4.03;68.11;100614.38;5023593;28;45353;-69
2022/12/10 06:42:44;;;;;;;;;37.67;31.33;;;;;2.97;68.01;100434.09;5005617;28;45288;-68
2022/12/10 06:45:09;;;;;;;;;40.67;31.67;;;;;3.79;67.59;100562.47;5022944;28;45921;-69
2022/12/10 06:47:35;;;;;;;;;30.67;30.67;;;;;3.39;67.82;100480.25;5023473;28;45257;-70
2022/12/10 06:50:00;;;;;;;;;35.33;31.00;;;;;4.10;67.75;100616.47;5022967;28;49826;-68
2022/12/10 06:52:26;;;;;;;;;29.00;24.00;;;;;3.90;67.33;100562.59;5023561;28;45576;-69
2022/12/10 06:54:51;;;;;;;;;28.67;26.33;;;;;4.21;67.36;100602.56;5023128;28;46099;-67
2022/12/10 06:57:16;;;;;;;;;31.00;25.67;;;;;3.92;66.79;100550.19;5023289;28;45468;-68
2022/12/10 06:59:42;;;;;;;;;29.67;26.00;;;;;4.35;66.82;100610.31;5022652;28;53269;-69
2022/12/10 07:02:09;;;;;;;;;32.00;28.00;;;;;3.87;66.27;100533.88;5023808;28;45315;-68
2022/12/10 07:04:34;;;;;;;;;38.00;31.67;;;;;4.07;66.23;100577.22;5023155;28;46392;-70
2022/12/10 07:07:00;;;;;;;;;42.00;25.67;;;;;4.39;66.46;100624.09;5023124;28;45327;-69
2022/12/10 07:09:25;;;;;;;;;39.67;32.00;;;;;4.38;66.73;100649.59;5022956;28;45403;-68
2022/12/10 07:11:50;;;;;;;;;31.00;28.33;;;;;4.24;66.98;100629.50;5023248;28;45384;-68
2022/12/10 07:14:17;;;;;;;;;33.33;31.00;;;;;4.29;66.72;100629.19;5022854;28;45505;-68
2022/12/10 07:16:42;;;;;;;;;41.33;31.67;;;;;4.17;66.98;100622.13;5022980;28;45515;-69
2022/12/10 07:19:10;;;;;;;;;42.00;32.33;;;;;4.35;67.13;100648.97;5022896;28;45265;-68
2022/12/10 07:21:36;;;;;;;;;38.33;33.00;;;;;4.15;66.62;100616.13;5023259;28;45240;-68
2022/12/10 07:24:06;;;;;;;;;38.67;32.00;;;;;4.40;67.56;100650.31;5022983;28;45595;-68
2022/12/10 07:26:34;;;;;;;;;35.67;31.67;;;;;4.40;67.21;100660.84;5022862;28;45450;-70
2022/12/10 07:29:01;;;;;;;;;32.67;29.67;;;;;4.22;66.30;100641.09;5021317;28;45312;-68
2022/12/10 07:31:27;;;;;;;;;32.00;23.67;;;;;3.85;66.76;100606.78;5005267;28;45618;-68
2022/12/10 07:33:54;;;;;;;;;26.00;24.33;;;;;3.95;67.36;100662.22;5022648;28;46489;-69
2022/12/10 07:36:22;;;;;;;;;27.67;25.00;;;;;3.86;67.96;100647.91;5022770;28;45336;-69
2022/12/10 07:38:47;;;;;;;;;32.67;26.67;;;;;2.96;68.21;100512.03;5022811;28;45531;-70
2022/12/10 07:41:13;;;;;;;;;31.33;26.00;;;;;3.36;68.45;100573.28;5023304;28;45269;-70
2022/12/10 07:43:41;;;;;;;;;28.33;24.00;;;;;3.85;68.55;100659.38;5022668;28;46346;-70
2022/12/10 07:46:15;;;;;;;;;30.67;26.33;;;;;3.78;68.30;100652.81;5022377;28;45455;-71
2022/12/10 07:48:42;;;;;;;;;35.33;26.67;;;;;3.41;67.87;100583.50;5018111;28;45499;-68
2022/12/10 07:51:08;;;;;;;;;25.00;22.00;;;;;3.25;68.23;100556.56;5020100;28;45508;-69
2022/12/10 07:53:34;;;;;;;;;44.33;32.67;;;;;3.82;67.89;100632.47;5001719;28;47506;-69
2022/12/10 07:56:00;;;;;;;;;40.67;30.00;;;;;3.81;67.45;100649.19;5019237;28;45408;-70
2022/12/10 07:58:25;;;;;;;;;33.00;30.67;;;;;3.97;67.57;100670.84;5001811;28;45424;-67
2022/12/10 08:00:50;;;;;;;;;31.67;26.00;;;;;4.10;67.82;100676.13;5019834;28;45540;-70
2022/12/10 08:03:16;;;;;;;;;34.33;28.67;;;;;3.21;68.25;100511.25;5017855;28;48283;-70
2022/12/10 08:05:41;;;;;;;;;34.00;29.33;;;;;3.58;67.36;100572.66;5019133;28;45444;-68
2022/12/10 08:08:07;;;;;;;;;30.00;26.33;;;;;4.14;68.13;100681.06;5018131;28;45508;-70
2022/12/10 08:10:37;;;;;;;;;32.33;25.67;;;;;4.05;67.34;100665.09;5019666;28;45318;-70
2022/12/10 08:13:03;;;;;;;;;36.00;33.00;;;;;4.26;67.45;100688.13;5019113;28;46480;-69
2022/12/10 08:15:28;;;;;;;;;34.67;29.00;;;;;4.27;67.37;100676.66;5018705;28;45492;-68
2022/12/10 08:17:54;;;;;;;;;29.67;24.00;;;;;4.15;67.18;100638.03;5017778;28;45660;-70
2022/12/10 08:20:20;;;;;;;;;24.33;20.67;;;;;4.53;66.50;100713.50;5001158;28;45567;-68
2022/12/10 08:22:49;;;;;;;;;33.33;26.33;;;;;4.36;66.62;100677.81;5018528;28;48156;-70
2022/12/10 08:25:14;;;;;;;;;25.67;25.00;;;;;4.26;66.04;100629.41;5019029;28;45252;-69
2022/12/10 08:27:39;;;;;;;;;32.00;27.67;;;;;3.51;66.48;100516.22;5001209;28;45452;-70
2022/12/10 08:30:06;;;;;;;;;30.67;26.00;;;;;4.74;65.67;100719.91;5019166;28;45200;-70
2022/12/10 08:32:31;;;;;;;;;33.00;25.00;;;;;4.56;66.33;100679.06;5018954;28;45876;-70
2022/12/10 08:34:56;;;;;;;;;25.00;21.33;;;;;4.69;65.59;100713.28;5018961;28;45518;-71
2022/12/10 08:37:22;;;;;;;;;45.67;33.00;;;;;4.47;66.15;100667.41;5019541;28;48630;-69
2022/12/10 08:39:47;;;;;;;;;32.00;25.67;;;;;4.22;65.30;100620.03;5019934;28;45528;-69
2022/12/10 08:42:13;;;;;;;;;29.67;26.33;;;;;4.67;65.42;100717.81;5018474;28;46570;-69
2022/12/10 08:44:38;;;;;;;;;28.33;23.67;;;;;4.30;65.27;100643.19;5001348;28;46570;-69
2022/12/10 08:47:03;;;;;;;;;36.67;32.00;;;;;4.81;65.09;100722.97;5019518;28;45376;-69
2022/12/10 08:49:29;;;;;;;;;42.67;29.33;;;;;4.33;65.77;100633.28;5019681;28;45623;-68
2022/12/10 08:51:54;;;;;;;;;34.00;27.33;;;;;3.97;65.11;100537.53;5021163;28;45929;-70
2022/12/10 08:54:20;;;;;;;;;38.33;32.00;;;;;4.86;64.87;100647.94;5000618;28;45769;-69
2022/12/10 08:56:45;;;;;;;;;33.00;28.67;;;;;4.99;64.35;100652.31;5018671;28;45773;-70
2022/12/10 08:59:10;;;;;;;;;30.33;25.00;;;;;5.51;63.38;100723.19;5018104;28;45566;-68
2022/12/10 09:01:36;;;;;;;;;35.67;32.00;;;;;5.49;63.77;100714.53;5000373;28;48764;-69
2022/12/10 09:04:01;;;;;;;;;36.67;31.33;;;;;5.46;63.73;100706.88;5016839;28;46477;-69
2022/12/10 09:06:27;;;;;;;;;39.33;29.00;;;;;5.46;63.74;100701.59;5018153;28;45407;-71
2022/12/10 09:08:54;;;;;;;;;40.33;33.67;;;;;5.61;63.11;100703.09;5018244;28;45582;-70
2022/12/10 09:11:23;;;;;;;;;40.00;33.67;;;;;5.68;62.68;100708.75;5017819;28;45925;-74
2022/12/10 09:13:49;;;;;;;;;43.00;34.33;;;;;5.79;63.03;100754.47;5017778;28;45438;-71
2022/12/10 09:16:15;;;;;;;;;36.00;33.00;;;;;5.70;62.50;100731.44;5018090;28;45405;-70
2022/12/10 09:18:41;;;;;;;;;42.00;34.67;;;;;5.15;62.42;100647.63;5000191;28;45504;-70
2022/12/10 09:21:16;;;;;;;;;33.67;30.00;;;;;5.75;63.49;100753.03;5016888;28;47865;-71
2022/12/10 09:23:42;;;;;;;;;31.67;31.00;;;;;5.48;62.91;100713.69;5000304;28;45261;-68
2022/12/10 09:26:09;;;;;;;;;38.00;33.33;;;;;5.83;62.88;100759.56;5016356;28;45441;-68
2022/12/10 09:28:35;;;;;;;;;35.33;31.67;;;;;5.59;62.65;100723.44;5018182;28;45631;-69
2022/12/10 09:31:02;;;;;;;;;48.33;38.33;;;;;5.75;63.08;100754.81;5017902;28;46921;-68
2022/12/10 09:33:28;;;;;;;;;48.00;37.00;;;;;5.22;62.18;100669.13;5017563;28;45580;-68
2022/12/10 09:35:53;;;;;;;;;47.67;37.67;;;;;5.55;62.43;100722.00;5000046;28;45507;-71
2022/12/10 09:38:19;;;;;;;;;34.00;30.67;;;;;5.82;61.94;100763.16;5018169;28;45597;-69
2022/12/10 09:40:59;;;;;;;;;36.67;27.67;;;;;5.54;62.05;100709.78;5017329;28;46560;-69
2022/12/10 09:43:50;;;;;;;;;37.00;31.67;;;;;5.59;62.65;100726.09;4999398;28;45443;-70
2022/12/10 09:46:36;;;;;;;;;43.67;33.33;;;;;5.91;62.14;100762.50;5016302;28;45539;-69
2022/12/10 09:49:16;;;;;;;;;36.00;31.00;;;;;5.94;62.79;100767.53;5017879;28;45359;-69
2022/12/10 09:51:42;;;;;;;;;41.33;35.67;;;;;4.97;61.77;100612.06;5015907;28;47793;-70
2022/12/10 09:54:16;;;;;;;;;36.67;34.67;;;;;6.00;61.97;100762.63;4999166;28;45898;-69
2022/12/10 09:56:43;;;;;;;;;43.33;35.33;;;;;5.08;61.76;100615.59;5016239;28;45254;-69
2022/12/10 09:59:19;;;;;;;;;34.00;26.67;;;;;5.95;61.25;100748.09;5017012;28;45582;-70
2022/12/10 10:01:46;;;;;;;;;30.67;29.33;;;;;6.03;61.49;100770.34;5014862;28;47961;-69
2022/12/10 10:04:12;;;;;;;;;37.67;34.00;;;;;6.11;60.78;100782.97;5016928;28;45385;-69
2022/12/10 10:06:39;;;;;;;;;32.67;31.67;;;;;6.17;60.39;100774.56;4999609;28;45362;-69
2022/12/10 10:09:07;;;;;;;;;34.67;26.67;;;;;6.15;60.23;100781.78;5017840;28;45301;-68
2022/12/10 10:11:34;;;;;;;;;30.00;30.00;;;;;6.27;60.19;100770.31;4998350;28;45881;-69
2022/12/10 10:14:26;;;;;;;;;34.00;26.00;;;;;6.32;60.45;100773.44;5017097;28;45487;-73
2022/12/10 10:16:59;;;;;;;;;39.00;32.00;;;;;6.26;59.70;100754.56;5013598;28;45445;-70
2022/12/10 10:19:29;;;;;;;;;38.00;32.67;;;;;6.07;59.67;100710.25;5017571;28;45302;-68
2022/12/10 10:21:54;;;;;;;;;35.33;32.00;;;;;6.40;59.48;100770.19;4999264;28;45535;-71
2022/12/10 10:24:24;;;;;;;;;36.00;30.67;;;;;5.98;59.27;100692.44;4999064;28;45445;-70
2022/12/10 10:26:56;;;;;;;;;42.67;35.00;;;;;6.11;58.58;100711.69;5016950;28;45495;-72
2022/12/10 10:29:26;;;;;;;;;31.67;28.00;;;;;5.97;59.39;100691.63;5017186;28;45532;-71
2022/12/10 10:32:14;;;;;;;;;37.67;30.00;;;;;6.29;59.45;100727.94;5016844;28;45845;-70
2022/12/10 10:34:40;;;;;;;;;41.00;35.67;;;;;6.37;58.89;100733.47;5015538;28;45508;-69
2022/12/10 10:37:06;;;;;;;;;33.67;31.67;;;;;5.97;58.67;100667.88;5016938;28;45540;-71
2022/12/10 10:39:35;;;;;;;;;39.00;35.00;;;;;6.27;58.04;100722.78;5015502;28;45515;-70
2022/12/10 10:42:09;;;;;;;;;32.33;28.67;;;;;6.35;58.94;100738.88;4998720;28;47952;-69
2022/12/10 10:44:37;;;;;;;;;36.00;34.00;;;;;6.55;59.07;100762.91;4998825;28;45449;-71
2022/12/10 10:47:24;;;;;;;;;35.00;33.67;;;;;5.89;58.50;100672.84;5017132;28;45258;-71
2022/12/10 10:49:50;;;;;;;;;43.33;34.67;;;;;5.78;59.03;100684.19;4998800;28;45503;-71
2022/12/10 10:52:16;;;;;;;;;41.33;34.33;;;;;5.78;59.57;100651.72;4998463;28;47166;-70
2022/12/10 10:54:44;;;;;;;;;40.33;35.00;;;;;6.43;59.31;100764.72;5016674;28;45373;-70
2022/12/10 10:57:23;;;;;;;;;48.00;40.00;;;;;6.54;59.86;100763.88;5016525;28;45440;-71
2022/12/10 10:59:51;;;;;;;;;41.33;35.67;;;;;6.04;59.43;100686.75;4998970;28;45530;-71
2022/12/10 11:02:23;;;;;;;;;43.33;35.00;;;;;6.62;60.02;100770.25;5014662;28;45428;-75
2022/12/10 11:04:53;;;;;;;;;47.33;39.67;;;;;5.45;59.10;100582.09;5016270;28;45411;-69
2022/12/10 11:07:36;;;;;;;;;35.00;34.00;;;;;5.74;59.40;100619.44;5015929;28;45220;-70
2022/12/10 11:10:04;;;;;;;;;38.00;33.33;;;;;6.65;59.04;100758.63;5016492;28;45535;-71
2022/12/10 11:12:39;;;;;;;;;46.00;36.00;;;;;6.62;58.90;100745.66;5015715;28;46706;-69
2022/12/10 11:15:29;;;;;;;;;38.00;34.00;;;;;6.74;58.49;100780.81;5016038;28;45438;-71
2022/12/10 11:17:55;;;;;;;;;39.33;35.33;;;;;6.79;58.79;100776.03;5004604;28;45336;-69
2022/12/10 11:20:33;;;;;;;;;47.33;36.33;;;;;6.82;58.93;100774.00;5016296;28;45425;-70
2022/12/10 11:23:08;;;;;;;;;46.33;36.00;;;;;6.75;58.41;100753.44;5001597;28;47435;-69
2022/12/10 11:25:36;;;;;;;;;39.67;34.00;;;;;6.90;58.23;100773.41;5019649;28;45360;-71
2022/12/10 11:28:27;;;;;;;;;35.00;31.33;;;;;6.62;58.36;100727.16;5019845;28;45315;-70
2022/12/10 11:31:29;;;;;;;;;41.00;35.67;;;;;6.86;58.38;100756.94;5018991;28;45596;-71
2022/12/10 11:34:13;;;;;;;;;30.67;29.00;;;;;6.88;57.54;100772.69;5019572;28;46582;-70
2022/12/10 11:37:04;;;;;;;;;35.33;31.00;;;;;6.88;57.97;100762.09;5019662;28;45450;-69
2022/12/10 11:39:44;;;;;;;;;35.33;32.33;;;;;6.85;58.14;100763.19;5020347;28;45265;-70